Flag for Ireland

Past Weather in Limerick, Ireland — Yesterday and Last 2 Weeks

Currently: 37 °F. Passing clouds. (Weather station: Shannon Airport, Ireland). See more current weather

Past Weather in Limerick — Graph

°F

Limerick Temperature Yesterday

Maximum temperature yesterday: 52 °F (at 12:00 pm)
Minimum temperature yesterday: 48 °F (at 11:00 pm)
Average temperature yesterday: 50 °F

High & Low Weather Summary for the Past Weeks

 TemperatureHumidityPressure
High54 °F (Jan 13, 2:30 pm)100% (Jan 6, 11:30 pm)30.39 "Hg (Jan 6, 11:30 pm)
Low23 °F (Jan 9, 9:30 am)62% (Jan 16, 1:30 pm)28.94 "Hg (Jan 20, 2:30 pm)
Average41 °F92%30.05 "Hg
* Reported Jan 5 9:00 pm — Jan 20 9:00 pm, Limerick. Weather by CustomWeather, © 2021

Note: Actual official high and low records may vary slightly from our data, if they occured in-between our weather recording intervals... More about our weather records

Limerick Weather History for the Previous 24 Hours

Scroll right to see more
 ConditionsComfort  
Time TempWeatherWind HumidityBarometerVisibility
9:00 pm
Wed, Jan 20
39 °FPassing clouds.10 mph87%29.00 "HgN/A
8:30 pm37 °FSprinkles. Passing clouds.9 mph93%29.00 "HgN/A
8:00 pm37 °FPassing clouds.6 mph93%29.00 "HgN/A
7:30 pm37 °FPassing clouds.5 mph87%28.97 "HgN/A
7:00 pm36 °FPassing clouds.6 mph93%28.97 "HgN/A
6:30 pm37 °FPassing clouds.5 mph87%28.97 "HgN/A
6:00 pm36 °FPassing clouds.5 mph93%28.97 "HgN/A
5:30 pm36 °FPassing clouds.5 mph93%28.97 "HgN/A
5:00 pm37 °FPassing clouds.6 mph87%28.97 "HgN/A
4:30 pm39 °FPassing clouds.5 mph81%28.97 "HgN/A
4:00 pm39 °FPassing clouds.8 mph81%28.97 "HgN/A
3:30 pm41 °FPassing clouds.7 mph76%28.94 "HgN/A
3:00 pm41 °FPassing clouds.8 mph81%28.94 "HgN/A
2:30 pm41 °FPassing clouds.8 mph81%28.94 "HgN/A
2:00 pm41 °FPassing clouds.9 mph81%28.97 "HgN/A
1:30 pm41 °FScattered clouds.9 mph87%28.97 "HgN/A
1:00 pm41 °FBroken clouds.7 mph87%28.97 "HgN/A
12:30 pm41 °FPartly sunny.8 mph93%28.97 "HgN/A
12:00 pm39 °FBroken clouds.6 mph100%29.00 "HgN/A
11:30 am39 °FScattered clouds.5 mph100%29.00 "HgN/A
11:00 am39 °FBroken clouds.3 mph100%29.00 "HgN/A
10:30 am39 °FPartly sunny.3 mph100%29.00 "HgN/A
10:00 am39 °FPartly sunny.5 mph93%29.00 "HgN/A
9:30 am39 °FBroken clouds.3 mph93%29.00 "HgN/A
9:00 am39 °FPartly sunny.3 mph93%29.03 "HgN/A
8:30 am39 °FPartly cloudy.3 mph100%29.03 "HgN/A
8:00 am39 °FPassing clouds.7 mph100%29.03 "HgN/A
7:30 am39 °FPassing clouds.5 mph100%29.03 "HgN/A
7:00 am39 °FPassing clouds.3 mph100%29.03 "HgN/A
6:30 am41 °FLight rain. Passing clouds.5 mph93%29.06 "HgN/A
6:00 am41 °FPassing clouds.7 mph93%29.06 "HgN/A
5:30 am41 °FPassing clouds.7 mph93%29.06 "HgN/A
5:00 am41 °FPartly cloudy.8 mph93%29.06 "HgN/A
4:30 am41 °FPassing clouds.7 mph100%29.06 "HgN/A
4:00 am41 °FPartly cloudy.9 mph100%29.06 "Hg6 mi
3:30 am41 °FDrizzle. Low clouds.8 mph100%29.06 "Hg4 mi
3:00 am43 °FPassing clouds.10 mph93%29.06 "Hg4 mi
2:30 am43 °FDrizzle. Low clouds.12 mph93%29.06 "Hg1 mi
2:00 am43 °FPassing clouds.12 mph100%29.06 "Hg1 mi
1:00 am48 °FDrizzle. Low clouds.9 mph94%29.06 "Hg1 mi
12:30 am48 °FDrizzle. Low clouds.10 mph100%29.06 "Hg2 mi
12:00 am48 °FDrizzle. Low clouds.10 mph100%29.09 "Hg1 mi
11:30 pm
Tue, Jan 19
48 °FPassing clouds.10 mph100%29.09 "HgN/A
11:00 pm48 °FLight rain. Partly cloudy.10 mph94%29.09 "HgN/A
10:30 pm50 °FPassing clouds.10 mph94%29.09 "HgN/A
10:00 pm50 °FPassing clouds.9 mph94%29.12 "HgN/A
Weather by CustomWeather, © 2021

See weather overview